Startpagina
METAR-TAF:

METAR-TAF

Vliegvelden :

Koeweit, Koeweit

breedte: 29-13N, lengte: 047-59E, hoogte: 55 m

Actueel weer

Dit bericht is 12 minuten geleden gemaakt, om 00:00 UTC
Wind 4 kt uit het westzuidwesten
Temperatuur 28°C
Vochtigheid 35%
Druk 1005 hPa
Zicht 10 km of meer
geen wolken onder 1500 m en geen cumulonimbus

METAR: OKBK 200000Z 24004KT CAVOK 28/11 Q1005 NOSIG

Tijdstip: 03:12 (00:12 UTC)

Verwachting

Dit bericht is 1 uur en het 27 minuten geleden gemaakt, om 22:45 UTC
Verwachting geldig van 20 om 00 UTC tot 21 om 06 UTC
Wind 8 kt uit het noordwesten
Zicht: 6000 m
Onbewolkt
Tijdelijke
van 20 om 01 UTC tot 20 om 04 UTC
Wind 3 kt uit variabele richting
Zicht: 4000 m
Heiigheid

TAF: OKBK 192245Z 2000/2106 32008KT 6000 SKC TEMPO 2001/2004 VRB03KT 4000 HZ

Waarnemingen en weersverwachtingen van meer dan 4000 vliegvelden (METAR en TAF).

De beschikbare stations zijn de gele en rode punten op de kaart.

Ga met uw muis naar het station om de naam te zien.

Klik dan om waarnemingen en weersverwachtingen te zien.

kaart wijzigen: klik op de groene knoppen met een zwart kruis om in te zoomen, op de groene knop met een streepje om uit te zoomen of op de groene pijlen voor aangrenzende kaarten.


METAR-TAF: